CheckWX is a tool to help pilots better visualize weather data.  It is not intended as a substitute for an official pre-flight weather briefing.

07:54:40 UTC

KCLM TAF
William R Fairchild International Airport
Port Angeles, Washington, USA
KCLM 241120Z 2412/2512 25003KT P6SM BKN070 BKN120 FM241700 VRB05KT P6SM BKN060 OVC100 FM250300 32005KT P6SM OVC050 FM250900 VRB03KT P6SM -RA OVC025

May-24@
12:00 UTC

May-24 @ 12:00 UTC

May-24@
17:00 UTC

May-24 @ 17:00 UTC

TAF KCLM 241120Z 2412/2512 25003KT P6SM BKN070 BKN120

Expired

Wind
  • 250° at 3 KTS
Cloud Levels
  • Broken at 7,000' AGL
  • Broken at 12,000' AGL

May-24@
17:00 UTC

May-24 @ 17:00 UTC

May-25@
03:00 UTC

May-25 @ 03:00 UTC

FM241700 VRB05KT P6SM BKN060 OVC100

Expired

Wind
  • Variable at 5 KTS
Cloud Levels
  • Broken at 6,000' AGL
  • Overcast at 10,000' AGL

May-25@
03:00 UTC

May-25 @ 03:00 UTC

May-25@
09:00 UTC

May-25 @ 09:00 UTC

FM250300 32005KT P6SM OVC050

From

From Standard forecast or significant change

Wind
  • 320° at 5 KTS
Cloud Levels
  • Overcast at 5,000' AGL

May-25@
09:00 UTC

May-25 @ 09:00 UTC

May-25@
12:00 UTC

May-25 @ 12:00 UTC

FM250900 VRB03KT P6SM -RA OVC025

From

From Standard forecast or significant change

Wind
  • Variable at 3 KTS
Conditions
Light Rain
Cloud Levels
  • Overcast at 2,500' AGL